sensor_id;sensor_type;location;lat;lon;timestamp;pressure;altitude;pressure_sealevel;temperature;humidity
75298;BME280;63896;45.990;18.688;2023-03-23T00:00:37;100645.13;;;6.67;78.66
75298;BME280;63896;45.990;18.688;2023-03-23T00:03:40;100641.69;;;6.66;78.81
75298;BME280;63896;45.990;18.688;2023-03-23T00:06:42;100635.59;;;6.66;78.99
75298;BME280;63896;45.990;18.688;2023-03-23T00:09:50;100642.59;;;6.59;78.91
75298;BME280;63896;45.990;18.688;2023-03-23T00:12:55;100646.59;;;6.55;78.29
75298;BME280;63896;45.990;18.688;2023-03-23T00:15:59;100640.03;;;6.51;78.54
75298;BME280;63896;45.990;18.688;2023-03-23T00:19:06;100629.78;;;6.56;78.14
75298;BME280;63896;45.990;18.688;2023-03-23T00:22:08;100634.75;;;6.65;77.61
75298;BME280;63896;45.990;18.688;2023-03-23T00:25:10;100638.03;;;6.53;77.31
75298;BME280;63896;45.990;18.688;2023-03-23T00:28:11;100630.22;;;6.45;77.66
75298;BME280;63896;45.990;18.688;2023-03-23T00:31:14;100627.22;;;6.33;77.67
75298;BME280;63896;45.990;18.688;2023-03-23T00:34:18;100631.66;;;6.33;78.10
75298;BME280;63896;45.990;18.688;2023-03-23T00:37:21;100626.56;;;6.31;78.95
75298;BME280;63896;45.990;18.688;2023-03-23T00:40:22;100625.00;;;6.22;78.89
75298;BME280;63896;45.990;18.688;2023-03-23T00:43:24;100635.66;;;6.14;79.59
75298;BME280;63896;45.990;18.688;2023-03-23T00:46:27;100625.91;;;6.14;80.51
75298;BME280;63896;45.990;18.688;2023-03-23T00:49:29;100630.84;;;6.17;81.33
75298;BME280;63896;45.990;18.688;2023-03-23T00:52:31;100631.75;;;6.10;81.13
75298;BME280;63896;45.990;18.688;2023-03-23T00:55:33;100620.72;;;6.06;81.98
75298;BME280;63896;45.990;18.688;2023-03-23T00:58:36;100625.44;;;5.96;82.62
75298;BME280;63896;45.990;18.688;2023-03-23T01:01:38;100625.13;;;5.91;82.97
75298;BME280;63896;45.990;18.688;2023-03-23T01:04:40;100617.22;;;5.91;82.70
75298;BME280;63896;45.990;18.688;2023-03-23T01:07:46;100617.59;;;5.88;83.11
75298;BME280;63896;45.990;18.688;2023-03-23T01:10:49;100620.25;;;6.03;81.25
75298;BME280;63896;45.990;18.688;2023-03-23T01:13:52;100626.81;;;6.07;80.81
75298;BME280;63896;45.990;18.688;2023-03-23T01:16:55;100624.28;;;6.13;81.17
75298;BME280;63896;45.990;18.688;2023-03-23T01:19:57;100618.06;;;6.06;80.95
75298;BME280;63896;45.990;18.688;2023-03-23T01:22:59;100621.53;;;6.07;81.09
75298;BME280;63896;45.990;18.688;2023-03-23T01:26:11;100619.72;;;6.07;81.03
75298;BME280;63896;45.990;18.688;2023-03-23T01:29:14;100618.44;;;6.03;80.81
75298;BME280;63896;45.990;18.688;2023-03-23T01:32:16;100620.47;;;6.16;79.89
75298;BME280;63896;45.990;18.688;2023-03-23T01:35:18;100620.91;;;6.05;80.38
75298;BME280;63896;45.990;18.688;2023-03-23T01:38:20;100621.16;;;5.95;80.45
75298;BME280;63896;45.990;18.688;2023-03-23T01:41:23;100622.91;;;5.80;80.91
75298;BME280;63896;45.990;18.688;2023-03-23T01:47:40;100613.03;;;5.59;82.74
75298;BME280;63896;45.990;18.688;2023-03-23T01:50:50;100617.50;;;5.59;82.97
75298;BME280;63896;45.990;18.688;2023-03-23T01:53:59;100617.28;;;5.60;83.13
75298;BME280;63896;45.990;18.688;2023-03-23T01:57:06;100617.03;;;5.55;82.88
75298;BME280;63896;45.990;18.688;2023-03-23T02:00:09;100616.63;;;5.44;83.55
75298;BME280;63896;45.990;18.688;2023-03-23T02:03:20;100619.28;;;5.36;84.20
75298;BME280;63896;45.990;18.688;2023-03-23T02:06:25;100611.03;;;5.39;84.63
75298;BME280;63896;45.990;18.688;2023-03-23T02:09:39;100622.19;;;5.41;84.40
75298;BME280;63896;45.990;18.688;2023-03-23T02:12:41;100617.19;;;5.31;84.63
75298;BME280;63896;45.990;18.688;2023-03-23T02:32:12;100624.06;;;5.09;86.15
75298;BME280;63896;45.990;18.688;2023-03-23T02:35:32;100625.84;;;5.17;86.61
75298;BME280;63896;45.990;18.688;2023-03-23T02:38:57;100625.28;;;5.21;86.35
75298;BME280;63896;45.990;18.688;2023-03-23T02:42:05;100626.94;;;5.22;86.43
75298;BME280;63896;45.990;18.688;2023-03-23T02:45:10;100631.56;;;5.20;86.38
75298;BME280;63896;45.990;18.688;2023-03-23T02:48:15;100634.19;;;5.20;86.41
75298;BME280;63896;45.990;18.688;2023-03-23T02:51:22;100640.31;;;5.13;87.54
75298;BME280;63896;45.990;18.688;2023-03-23T02:54:26;100633.50;;;4.96;88.09
75298;BME280;63896;45.990;18.688;2023-03-23T02:57:35;100639.44;;;4.90;88.92
75298;BME280;63896;45.990;18.688;2023-03-23T03:00:39;100639.94;;;4.85;89.07
75298;BME280;63896;45.990;18.688;2023-03-23T03:03:41;100642.25;;;4.80;88.48
75298;BME280;63896;45.990;18.688;2023-03-23T03:09:58;100646.22;;;4.76;88.27
75298;BME280;63896;45.990;18.688;2023-03-23T03:16:43;100643.78;;;4.74;88.96
75298;BME280;63896;45.990;18.688;2023-03-23T03:19:49;100643.47;;;4.61;88.87
75298;BME280;63896;45.990;18.688;2023-03-23T03:22:53;100638.91;;;4.55;89.77
75298;BME280;63896;45.990;18.688;2023-03-23T03:25:57;100637.91;;;4.56;89.22
75298;BME280;63896;45.990;18.688;2023-03-23T03:29:13;100638.72;;;4.57;89.17
75298;BME280;63896;45.990;18.688;2023-03-23T03:32:23;100636.09;;;4.57;89.55
75298;BME280;63896;45.990;18.688;2023-03-23T03:35:28;100640.69;;;4.63;90.15
75298;BME280;63896;45.990;18.688;2023-03-23T03:38:44;100638.38;;;4.60;89.30
75298;BME280;63896;45.990;18.688;2023-03-23T03:41:47;100644.16;;;4.63;89.64
75298;BME280;63896;45.990;18.688;2023-03-23T03:44:49;100636.41;;;4.62;90.17
75298;BME280;63896;45.990;18.688;2023-03-23T03:47:52;100630.22;;;4.55;90.94
75298;BME280;63896;45.990;18.688;2023-03-23T03:50:54;100635.59;;;4.61;90.66
75298;BME280;63896;45.990;18.688;2023-03-23T03:53:59;100635.28;;;4.56;91.45
75298;BME280;63896;45.990;18.688;2023-03-23T03:57:00;100636.09;;;4.57;92.48
75298;BME280;63896;45.990;18.688;2023-03-23T04:00:21;100631.72;;;4.41;92.84
75298;BME280;63896;45.990;18.688;2023-03-23T04:03:25;100634.69;;;4.38;93.27
75298;BME280;63896;45.990;18.688;2023-03-23T04:06:37;100635.19;;;4.33;93.23
75298;BME280;63896;45.990;18.688;2023-03-23T04:09:40;100637.16;;;4.31;92.56
75298;BME280;63896;45.990;18.688;2023-03-23T04:12:44;100641.09;;;4.36;92.19
75298;BME280;63896;45.990;18.688;2023-03-23T04:16:04;100638.28;;;4.45;92.02
75298;BME280;63896;45.990;18.688;2023-03-23T04:19:08;100634.34;;;4.41;92.39
75298;BME280;63896;45.990;18.688;2023-03-23T04:22:10;100642.56;;;4.38;92.78
75298;BME280;63896;45.990;18.688;2023-03-23T04:25:12;100638.47;;;4.36;93.36
75298;BME280;63896;45.990;18.688;2023-03-23T04:28:17;100636.16;;;4.32;93.25
75298;BME280;63896;45.990;18.688;2023-03-23T04:31:39;100637.16;;;4.31;92.55
75298;BME280;63896;45.990;18.688;2023-03-23T04:34:53;100634.06;;;4.28;92.93
75298;BME280;63896;45.990;18.688;2023-03-23T04:37:59;100628.66;;;4.13;93.17
75298;BME280;63896;45.990;18.688;2023-03-23T04:41:01;100630.78;;;4.02;93.51
75298;BME280;63896;45.990;18.688;2023-03-23T04:44:29;100635.25;;;4.01;93.57
75298;BME280;63896;45.990;18.688;2023-03-23T04:47:42;100633.59;;;4.00;93.59
75298;BME280;63896;45.990;18.688;2023-03-23T04:50:55;100632.09;;;4.06;93.67
75298;BME280;63896;45.990;18.688;2023-03-23T04:54:03;100628.34;;;4.08;92.86
75298;BME280;63896;45.990;18.688;2023-03-23T04:57:07;100634.56;;;4.15;93.48
75298;BME280;63896;45.990;18.688;2023-03-23T05:00:14;100637.47;;;4.37;92.79
75298;BME280;63896;45.990;18.688;2023-03-23T05:03:23;100638.81;;;4.24;93.02
75298;BME280;63896;45.990;18.688;2023-03-23T05:06:28;100629.66;;;4.20;92.55
75298;BME280;63896;45.990;18.688;2023-03-23T05:09:36;100628.25;;;4.41;93.52
75298;BME280;63896;45.990;18.688;2023-03-23T05:12:39;100633.78;;;4.70;91.82
75298;BME280;63896;45.990;18.688;2023-03-23T05:15:44;100633.56;;;4.79;91.82
75298;BME280;63896;45.990;18.688;2023-03-23T05:18:46;100631.22;;;4.93;90.59
75298;BME280;63896;45.990;18.688;2023-03-23T05:21:51;100636.91;;;5.04;89.07
75298;BME280;63896;45.990;18.688;2023-03-23T05:24:53;100631.59;;;5.12;89.50
75298;BME280;63896;45.990;18.688;2023-03-23T05:27:55;100627.28;;;5.19;89.56
75298;BME280;63896;45.990;18.688;2023-03-23T05:31:18;100625.25;;;5.29;89.10
75298;BME280;63896;45.990;18.688;2023-03-23T05:34:20;100635.47;;;5.24;89.10
75298;BME280;63896;45.990;18.688;2023-03-23T05:37:28;100642.56;;;5.24;89.29
75298;BME280;63896;45.990;18.688;2023-03-23T05:40:42;100644.91;;;5.42;88.47
75298;BME280;63896;45.990;18.688;2023-03-23T05:43:49;100641.91;;;5.45;87.70
75298;BME280;63896;45.990;18.688;2023-03-23T05:46:58;100655.22;;;5.51;86.91
75298;BME280;63896;45.990;18.688;2023-03-23T05:50:00;100654.97;;;5.61;86.50
75298;BME280;63896;45.990;18.688;2023-03-23T05:53:04;100656.72;;;5.68;85.73
75298;BME280;63896;45.990;18.688;2023-03-23T05:56:09;100661.09;;;5.76;84.89
75298;BME280;63896;45.990;18.688;2023-03-23T05:59:49;100660.47;;;5.97;83.79
75298;BME280;63896;45.990;18.688;2023-03-23T06:03:00;100662.94;;;5.98;83.38
75298;BME280;63896;45.990;18.688;2023-03-23T06:06:10;100665.72;;;6.19;82.68
75298;BME280;63896;45.990;18.688;2023-03-23T06:09:26;100667.09;;;6.30;80.96
75298;BME280;63896;45.990;18.688;2023-03-23T06:12:40;100669.19;;;6.35;81.20
75298;BME280;63896;45.990;18.688;2023-03-23T06:16:02;100665.84;;;6.41;80.58
75298;BME280;63896;45.990;18.688;2023-03-23T06:19:19;100673.47;;;6.65;79.99
75298;BME280;63896;45.990;18.688;2023-03-23T06:22:31;100668.72;;;7.76;76.29
75298;BME280;63896;45.990;18.688;2023-03-23T06:25:44;100663.91;;;9.04;70.47
75298;BME280;63896;45.990;18.688;2023-03-23T06:28:47;100663.91;;;8.56;71.90
75298;BME280;63896;45.990;18.688;2023-03-23T06:31:54;100661.72;;;8.67;71.69
75298;BME280;63896;45.990;18.688;2023-03-23T06:34:57;100659.34;;;8.85;71.23
75298;BME280;63896;45.990;18.688;2023-03-23T06:38:25;100661.03;;;8.92;71.33
75298;BME280;63896;45.990;18.688;2023-03-23T06:41:30;100674.91;;;11.37;63.24
75298;BME280;63896;45.990;18.688;2023-03-23T06:44:33;100665.47;;;13.26;57.17
75298;BME280;63896;45.990;18.688;2023-03-23T06:47:52;100672.47;;;14.92;51.50
75298;BME280;63896;45.990;18.688;2023-03-23T06:50:55;100672.50;;;16.22;47.62
75298;BME280;63896;45.990;18.688;2023-03-23T06:53:59;100666.66;;;16.80;46.65
75298;BME280;63896;45.990;18.688;2023-03-23T06:57:05;100670.41;;;16.45;46.78
75298;BME280;63896;45.990;18.688;2023-03-23T07:00:09;100668.47;;;17.93;42.78
75298;BME280;63896;45.990;18.688;2023-03-23T07:03:14;100669.25;;;19.19;40.10
75298;BME280;63896;45.990;18.688;2023-03-23T07:06:16;100675.88;;;19.79;38.20
75298;BME280;63896;45.990;18.688;2023-03-23T07:09:24;100674.81;;;19.75;37.61
75298;BME280;63896;45.990;18.688;2023-03-23T07:12:27;100676.13;;;21.43;34.47
75298;BME280;63896;45.990;18.688;2023-03-23T07:15:31;100680.59;;;22.01;33.56
75298;BME280;63896;45.990;18.688;2023-03-23T07:18:33;100679.75;;;22.68;32.26
75298;BME280;63896;45.990;18.688;2023-03-23T07:21:35;100678.47;;;23.51;31.20
75298;BME280;63896;45.990;18.688;2023-03-23T07:24:38;100675.22;;;22.59;32.36
75298;BME280;63896;45.990;18.688;2023-03-23T07:27:54;100684.63;;;22.66;32.20
75298;BME280;63896;45.990;18.688;2023-03-23T07:30:58;100682.94;;;23.37;31.09
75298;BME280;63896;45.990;18.688;2023-03-23T07:34:10;100679.41;;;23.17;31.24
75298;BME280;63896;45.990;18.688;2023-03-23T07:37:27;100669.72;;;24.70;29.33
75298;BME280;63896;45.990;18.688;2023-03-23T07:40:32;100671.72;;;24.64;29.30
75298;BME280;63896;45.990;18.688;2023-03-23T07:43:47;100674.59;;;26.61;26.69
75298;BME280;63896;45.990;18.688;2023-03-23T07:52:36;100687.94;;;27.10;25.85
75298;BME280;63896;45.990;18.688;2023-03-23T07:55:40;100689.72;;;28.35;24.88
75298;BME280;63896;45.990;18.688;2023-03-23T07:59:01;100683.75;;;27.13;25.99
75298;BME280;63896;45.990;18.688;2023-03-23T08:02:04;100684.06;;;27.11;26.23
75298;BME280;63896;45.990;18.688;2023-03-23T08:05:18;100684.31;;;28.26;24.31
75298;BME280;63896;45.990;18.688;2023-03-23T08:08:54;100688.81;;;27.54;26.41
75298;BME280;63896;45.990;18.688;2023-03-23T08:12:16;100685.88;;;28.36;24.47
75298;BME280;63896;45.990;18.688;2023-03-23T08:15:36;100677.75;;;29.24;23.31
75298;BME280;63896;45.990;18.688;2023-03-23T08:18:51;100673.56;;;27.96;24.83
75298;BME280;63896;45.990;18.688;2023-03-23T08:22:12;100679.66;;;28.73;24.46
75298;BME280;63896;45.990;18.688;2023-03-23T08:25:33;100679.25;;;29.84;23.14
75298;BME280;63896;45.990;18.688;2023-03-23T08:28:56;100675.13;;;29.98;23.06
75298;BME280;63896;45.990;18.688;2023-03-23T08:31:59;100677.91;;;29.27;24.03
75298;BME280;63896;45.990;18.688;2023-03-23T08:35:20;100677.25;;;30.25;22.54
75298;BME280;63896;45.990;18.688;2023-03-23T08:38:32;100672.53;;;30.14;22.53
75298;BME280;63896;45.990;18.688;2023-03-23T08:42:03;100675.16;;;30.67;21.62
75298;BME280;63896;45.990;18.688;2023-03-23T08:45:25;100679.41;;;31.01;20.71
75298;BME280;63896;45.990;18.688;2023-03-23T08:48:28;100680.81;;;31.59;20.72
75298;BME280;63896;45.990;18.688;2023-03-23T08:51:36;100673.69;;;30.94;20.80
75298;BME280;63896;45.990;18.688;2023-03-23T08:55:02;100674.84;;;30.69;20.89
75298;BME280;63896;45.990;18.688;2023-03-23T08:58:21;100680.31;;;33.19;17.93
75298;BME280;63896;45.990;18.688;2023-03-23T09:01:30;100678.50;;;32.76;18.11
75298;BME280;63896;45.990;18.688;2023-03-23T09:04:58;100672.09;;;32.41;18.30
75298;BME280;63896;45.990;18.688;2023-03-23T09:08:31;100674.66;;;31.62;18.62
75298;BME280;63896;45.990;18.688;2023-03-23T09:11:36;100669.22;;;31.26;18.93
75298;BME280;63896;45.990;18.688;2023-03-23T09:14:38;100672.47;;;31.56;18.99
75298;BME280;63896;45.990;18.688;2023-03-23T09:17:45;100668.47;;;31.93;17.70
75298;BME280;63896;45.990;18.688;2023-03-23T09:20:50;100658.19;;;32.65;16.73
75298;BME280;63896;45.990;18.688;2023-03-23T09:23:52;100666.41;;;33.12;17.05
75298;BME280;63896;45.990;18.688;2023-03-23T09:26:54;100671.28;;;32.56;16.65
75298;BME280;63896;45.990;18.688;2023-03-23T09:29:56;100669.78;;;30.59;18.46
75298;BME280;63896;45.990;18.688;2023-03-23T09:33:00;100676.88;;;32.91;15.90
75298;BME280;63896;45.990;18.688;2023-03-23T09:36:05;100674.16;;;32.44;16.17
75298;BME280;63896;45.990;18.688;2023-03-23T09:39:10;100662.00;;;32.61;15.84
75298;BME280;63896;45.990;18.688;2023-03-23T09:45:37;100657.59;;;30.11;17.47
75298;BME280;63896;45.990;18.688;2023-03-23T09:52:57;100649.03;;;31.06;17.08
75298;BME280;63896;45.990;18.688;2023-03-23T09:56:00;100651.53;;;31.63;16.73
75298;BME280;63896;45.990;18.688;2023-03-23T10:02:29;100644.25;;;32.11;16.67
75298;BME280;63896;45.990;18.688;2023-03-23T10:05:41;100650.16;;;31.70;16.86
75298;BME280;63896;45.990;18.688;2023-03-23T10:08:50;100640.97;;;32.37;16.57
75298;BME280;63896;45.990;18.688;2023-03-23T10:12:19;100632.47;;;32.73;16.00
75298;BME280;63896;45.990;18.688;2023-03-23T10:15:38;100624.31;;;32.30;16.65
75298;BME280;63896;45.990;18.688;2023-03-23T10:18:46;100625.22;;;32.65;16.36
75298;BME280;63896;45.990;18.688;2023-03-23T10:22:01;100610.25;;;33.13;15.72
75298;BME280;63896;45.990;18.688;2023-03-23T10:25:15;100608.06;;;32.87;15.88
75298;BME280;63896;45.990;18.688;2023-03-23T10:28:21;100613.53;;;31.78;16.72
75298;BME280;63896;45.990;18.688;2023-03-23T10:31:32;100605.09;;;31.86;17.13
75298;BME280;63896;45.990;18.688;2023-03-23T10:34:58;100612.53;;;29.97;18.54
75298;BME280;63896;45.990;18.688;2023-03-23T10:38:11;100602.25;;;29.40;19.46
75298;BME280;63896;45.990;18.688;2023-03-23T10:41:19;100602.53;;;31.10;17.75
75298;BME280;63896;45.990;18.688;2023-03-23T10:44:24;100606.78;;;32.34;16.39
75298;BME280;63896;45.990;18.688;2023-03-23T10:47:28;100599.56;;;32.77;16.20
75298;BME280;63896;45.990;18.688;2023-03-23T10:50:37;100592.69;;;32.36;16.98
75298;BME280;63896;45.990;18.688;2023-03-23T10:53:56;100583.63;;;33.17;15.73
75298;BME280;63896;45.990;18.688;2023-03-23T10:56:59;100584.06;;;30.83;17.82
75298;BME280;63896;45.990;18.688;2023-03-23T11:00:07;100585.66;;;30.71;18.22
75298;BME280;63896;45.990;18.688;2023-03-23T11:06:24;100572.13;;;30.51;18.23
75298;BME280;63896;45.990;18.688;2023-03-23T11:09:39;100561.06;;;31.11;17.99
75298;BME280;63896;45.990;18.688;2023-03-23T11:12:56;100555.88;;;31.62;17.67
75298;BME280;63896;45.990;18.688;2023-03-23T11:15:59;100554.50;;;32.62;16.30
75298;BME280;63896;45.990;18.688;2023-03-23T11:19:20;100538.84;;;33.59;16.34
75298;BME280;63896;45.990;18.688;2023-03-23T11:22:29;100546.75;;;33.22;16.19
75298;BME280;63896;45.990;18.688;2023-03-23T11:25:51;100536.34;;;33.73;15.62
75298;BME280;63896;45.990;18.688;2023-03-23T11:29:08;100528.53;;;34.73;15.10
75298;BME280;63896;45.990;18.688;2023-03-23T11:32:14;100526.00;;;34.12;15.40
75298;BME280;63896;45.990;18.688;2023-03-23T11:35:21;100530.66;;;33.04;16.27
75298;BME280;63896;45.990;18.688;2023-03-23T11:38:53;100522.78;;;32.18;16.62
75298;BME280;63896;45.990;18.688;2023-03-23T11:42:22;100520.09;;;31.58;17.98
75298;BME280;63896;45.990;18.688;2023-03-23T11:45:37;100520.59;;;32.23;17.03
75298;BME280;63896;45.990;18.688;2023-03-23T11:59:29;100510.16;;;31.26;18.50
75298;BME280;63896;45.990;18.688;2023-03-23T12:13:23;100484.19;;;32.10;17.18
75298;BME280;63896;45.990;18.688;2023-03-23T12:23:41;100481.44;;;27.67;21.08
75298;BME280;63896;45.990;18.688;2023-03-23T12:27:06;100482.16;;;28.52;21.19
75298;BME280;63896;45.990;18.688;2023-03-23T12:37:13;100472.06;;;31.37;18.20
75298;BME280;63896;45.990;18.688;2023-03-23T12:43:54;100470.38;;;30.77;18.34
75298;BME280;63896;45.990;18.688;2023-03-23T12:47:48;100470.31;;;31.44;17.26
75298;BME280;63896;45.990;18.688;2023-03-23T12:51:53;100467.13;;;30.47;18.82
75298;BME280;63896;45.990;18.688;2023-03-23T13:04:18;100442.09;;;32.22;17.05
75298;BME280;63896;45.990;18.688;2023-03-23T13:11:53;100436.28;;;31.77;17.27
75298;BME280;63896;45.990;18.688;2023-03-23T13:22:09;100425.41;;;28.08;21.00
75298;BME280;63896;45.990;18.688;2023-03-23T13:25:37;100432.22;;;27.55;21.76
75298;BME280;63896;45.990;18.688;2023-03-23T13:28:56;100433.38;;;27.45;21.53
75298;BME280;63896;45.990;18.688;2023-03-23T13:32:11;100431.25;;;27.98;20.94
75298;BME280;63896;45.990;18.688;2023-03-23T13:35:16;100418.53;;;28.93;19.35
75298;BME280;63896;45.990;18.688;2023-03-23T13:38:23;100429.22;;;27.86;20.32
75298;BME280;63896;45.990;18.688;2023-03-23T13:41:25;100412.13;;;27.13;21.42
75298;BME280;63896;45.990;18.688;2023-03-23T13:44:54;100416.66;;;29.06;19.66
75298;BME280;63896;45.990;18.688;2023-03-23T13:54:45;100417.75;;;28.01;20.55
75298;BME280;63896;45.990;18.688;2023-03-23T14:01:17;100419.22;;;25.58;23.30
75298;BME280;63896;45.990;18.688;2023-03-23T14:04:20;100412.03;;;27.39;21.57
75298;BME280;63896;45.990;18.688;2023-03-23T14:07:22;100411.31;;;28.56;19.71
75298;BME280;63896;45.990;18.688;2023-03-23T14:14:06;100408.41;;;29.96;18.90
75298;BME280;63896;45.990;18.688;2023-03-23T14:17:17;100398.91;;;29.00;20.19
75298;BME280;63896;45.990;18.688;2023-03-23T14:20:25;100403.16;;;29.21;20.55
75298;BME280;63896;45.990;18.688;2023-03-23T14:23:31;100413.53;;;28.04;21.17
75298;BME280;63896;45.990;18.688;2023-03-23T14:30:24;100405.91;;;27.59;21.31
75298;BME280;63896;45.990;18.688;2023-03-23T14:33:30;100409.47;;;27.89;21.67
75298;BME280;63896;45.990;18.688;2023-03-23T14:36:34;100405.13;;;27.50;21.61
75298;BME280;63896;45.990;18.688;2023-03-23T14:39:37;100418.84;;;26.47;22.53
75298;BME280;63896;45.990;18.688;2023-03-23T14:42:39;100414.56;;;25.89;23.96
75298;BME280;63896;45.990;18.688;2023-03-23T14:45:42;100410.50;;;25.17;24.37
75298;BME280;63896;45.990;18.688;2023-03-23T14:48:44;100406.13;;;25.07;24.44
75298;BME280;63896;45.990;18.688;2023-03-23T14:51:51;100402.28;;;24.63;25.21
75298;BME280;63896;45.990;18.688;2023-03-23T14:54:53;100404.41;;;23.90;27.42
75298;BME280;63896;45.990;18.688;2023-03-23T14:57:55;100403.28;;;23.50;27.34
75298;BME280;63896;45.990;18.688;2023-03-23T15:01:10;100398.34;;;23.06;27.84
75298;BME280;63896;45.990;18.688;2023-03-23T15:04:23;100395.88;;;22.91;28.35
75298;BME280;63896;45.990;18.688;2023-03-23T15:07:33;100404.44;;;22.42;28.74
75298;BME280;63896;45.990;18.688;2023-03-23T15:10:36;100408.13;;;22.51;29.25
75298;BME280;63896;45.990;18.688;2023-03-23T15:13:42;100400.28;;;22.30;29.35
75298;BME280;63896;45.990;18.688;2023-03-23T15:16:46;100405.50;;;22.03;30.32
75298;BME280;63896;45.990;18.688;2023-03-23T15:19:50;100409.25;;;21.78;31.17
75298;BME280;63896;45.990;18.688;2023-03-23T15:22:53;100403.72;;;21.70;30.45
75298;BME280;63896;45.990;18.688;2023-03-23T15:25:56;100403.81;;;21.60;31.58
75298;BME280;63896;45.990;18.688;2023-03-23T15:32:10;100407.66;;;21.54;32.10
75298;BME280;63896;45.990;18.688;2023-03-23T15:35:15;100402.97;;;21.35;32.94
75298;BME280;63896;45.990;18.688;2023-03-23T15:38:21;100408.91;;;21.04;33.60
75298;BME280;63896;45.990;18.688;2023-03-23T15:41:28;100407.63;;;20.96;33.75
75298;BME280;63896;45.990;18.688;2023-03-23T15:44:33;100400.00;;;20.69;34.99
75298;BME280;63896;45.990;18.688;2023-03-23T15:50:46;100411.63;;;20.65;35.42
75298;BME280;63896;45.990;18.688;2023-03-23T15:53:50;100405.22;;;20.51;35.78
75298;BME280;63896;45.990;18.688;2023-03-23T15:56:53;100399.31;;;20.49;36.43
75298;BME280;63896;45.990;18.688;2023-03-23T15:59:54;100401.03;;;20.24;36.84
75298;BME280;63896;45.990;18.688;2023-03-23T16:03:03;100401.13;;;20.09;37.58
75298;BME280;63896;45.990;18.688;2023-03-23T16:06:10;100394.72;;;20.00;37.62
75298;BME280;63896;45.990;18.688;2023-03-23T16:09:26;100405.78;;;19.88;38.24
75298;BME280;63896;45.990;18.688;2023-03-23T16:12:29;100401.53;;;19.67;39.11
75298;BME280;63896;45.990;18.688;2023-03-23T16:15:32;100404.78;;;19.54;39.51
75298;BME280;63896;45.990;18.688;2023-03-23T16:18:35;100409.38;;;19.23;40.12
75298;BME280;63896;45.990;18.688;2023-03-23T16:21:38;100417.19;;;19.04;40.22
75298;BME280;63896;45.990;18.688;2023-03-23T16:24:41;100418.00;;;19.00;40.13
75298;BME280;63896;45.990;18.688;2023-03-23T16:27:44;100418.78;;;18.70;40.43
75298;BME280;63896;45.990;18.688;2023-03-23T16:30:53;100419.25;;;18.47;40.89
75298;BME280;63896;45.990;18.688;2023-03-23T16:33:57;100427.25;;;18.32;41.27
75298;BME280;63896;45.990;18.688;2023-03-23T16:37:00;100427.47;;;18.10;41.56
75298;BME280;63896;45.990;18.688;2023-03-23T16:40:05;100434.38;;;17.91;42.21
75298;BME280;63896;45.990;18.688;2023-03-23T16:43:09;100435.38;;;17.80;42.12
75298;BME280;63896;45.990;18.688;2023-03-23T16:46:13;100434.50;;;17.69;42.47
75298;BME280;63896;45.990;18.688;2023-03-23T16:49:16;100433.03;;;17.51;42.70
75298;BME280;63896;45.990;18.688;2023-03-23T16:52:19;100439.56;;;17.29;43.04
75298;BME280;63896;45.990;18.688;2023-03-23T16:55:22;100430.06;;;17.16;43.30
75298;BME280;63896;45.990;18.688;2023-03-23T16:58:27;100427.84;;;17.03;43.76
75298;BME280;63896;45.990;18.688;2023-03-23T17:01:30;100423.66;;;16.85;44.27
75298;BME280;63896;45.990;18.688;2023-03-23T17:04:33;100428.72;;;16.82;43.58
75298;BME280;63896;45.990;18.688;2023-03-23T17:07:37;100435.09;;;16.76;43.93
75298;BME280;63896;45.990;18.688;2023-03-23T17:10:41;100427.22;;;16.64;43.91
75298;BME280;63896;45.990;18.688;2023-03-23T17:13:45;100424.19;;;16.60;44.00
75298;BME280;63896;45.990;18.688;2023-03-23T17:16:48;100424.13;;;16.55;43.83
75298;BME280;63896;45.990;18.688;2023-03-23T17:19:51;100428.59;;;16.45;44.14
75298;BME280;63896;45.990;18.688;2023-03-23T17:22:54;100427.41;;;16.36;44.03
75298;BME280;63896;45.990;18.688;2023-03-23T17:25:57;100427.75;;;16.17;44.78
75298;BME280;63896;45.990;18.688;2023-03-23T17:29:00;100436.50;;;16.13;44.50
75298;BME280;63896;45.990;18.688;2023-03-23T17:32:03;100438.38;;;16.12;44.38
75298;BME280;63896;45.990;18.688;2023-03-23T17:35:07;100439.44;;;16.11;44.90
75298;BME280;63896;45.990;18.688;2023-03-23T17:38:10;100452.38;;;15.98;44.74
75298;BME280;63896;45.990;18.688;2023-03-23T17:41:13;100453.63;;;15.90;45.37
75298;BME280;63896;45.990;18.688;2023-03-23T17:44:16;100456.56;;;15.72;46.01
75298;BME280;63896;45.990;18.688;2023-03-23T17:47:19;100456.84;;;15.54;46.72
75298;BME280;63896;45.990;18.688;2023-03-23T17:50:23;100462.97;;;15.38;47.34
75298;BME280;63896;45.990;18.688;2023-03-23T17:53:26;100460.31;;;15.21;47.50
75298;BME280;63896;45.990;18.688;2023-03-23T17:56:29;100462.88;;;14.99;48.00
75298;BME280;63896;45.990;18.688;2023-03-23T17:59:32;100471.91;;;14.82;48.53
75298;BME280;63896;45.990;18.688;2023-03-23T18:02:38;100476.97;;;14.66;48.90
75298;BME280;63896;45.990;18.688;2023-03-23T18:05:44;100471.34;;;14.51;49.21
75298;BME280;63896;45.990;18.688;2023-03-23T18:08:53;100477.16;;;14.37;49.47
75298;BME280;63896;45.990;18.688;2023-03-23T18:11:56;100484.47;;;14.29;49.57
75298;BME280;63896;45.990;18.688;2023-03-23T18:14:59;100490.75;;;14.23;50.08
75298;BME280;63896;45.990;18.688;2023-03-23T18:18:05;100490.09;;;14.16;50.42
75298;BME280;63896;45.990;18.688;2023-03-23T18:21:09;100500.16;;;14.14;50.56
75298;BME280;63896;45.990;18.688;2023-03-23T18:24:12;100510.38;;;14.17;50.58